sensor_id;sensor_type;location;lat;lon;timestamp;pressure;altitude;pressure_sealevel;temperature;humidity
11692;BME280;33659;42.672;23.354;2023-03-23T00:00:52;94324.97;;;10.08;78.39
11692;BME280;33659;42.672;23.354;2023-03-23T00:03:19;94322.03;;;10.10;77.87
11692;BME280;33659;42.672;23.354;2023-03-23T00:05:46;94320.50;;;10.09;77.83
11692;BME280;33659;42.672;23.354;2023-03-23T00:08:16;94318.03;;;10.12;77.34
11692;BME280;33659;42.672;23.354;2023-03-23T00:10:42;94324.09;;;10.16;77.04
11692;BME280;33659;42.672;23.354;2023-03-23T00:13:09;94317.16;;;10.20;76.66
11692;BME280;33659;42.672;23.354;2023-03-23T00:15:36;94318.69;;;10.21;76.30
11692;BME280;33659;42.672;23.354;2023-03-23T00:18:08;94322.72;;;10.19;76.25
11692;BME280;33659;42.672;23.354;2023-03-23T00:20:46;94327.38;;;10.13;76.09
11692;BME280;33659;42.672;23.354;2023-03-23T00:23:14;94325.09;;;10.12;76.16
11692;BME280;33659;42.672;23.354;2023-03-23T00:25:45;94322.50;;;10.12;75.53
11692;BME280;33659;42.672;23.354;2023-03-23T00:28:12;94333.69;;;10.12;75.31
11692;BME280;33659;42.672;23.354;2023-03-23T00:30:39;94331.06;;;10.12;75.04
11692;BME280;33659;42.672;23.354;2023-03-23T00:33:08;94332.94;;;10.12;74.72
11692;BME280;33659;42.672;23.354;2023-03-23T00:35:39;94334.13;;;10.14;74.61
11692;BME280;33659;42.672;23.354;2023-03-23T00:38:06;94333.03;;;10.15;74.04
11692;BME280;33659;42.672;23.354;2023-03-23T00:40:33;94335.19;;;10.13;74.34
11692;BME280;33659;42.672;23.354;2023-03-23T00:43:01;94341.50;;;10.12;74.00
11692;BME280;33659;42.672;23.354;2023-03-23T00:45:29;94342.47;;;10.08;74.29
11692;BME280;33659;42.672;23.354;2023-03-23T00:47:55;94346.16;;;10.07;74.38
11692;BME280;33659;42.672;23.354;2023-03-23T00:50:28;94352.78;;;10.04;74.69
11692;BME280;33659;42.672;23.354;2023-03-23T00:52:55;94340.41;;;10.01;74.69
11692;BME280;33659;42.672;23.354;2023-03-23T00:55:23;94344.50;;;9.90;75.47
11692;BME280;33659;42.672;23.354;2023-03-23T00:57:50;94341.13;;;9.89;75.45
11692;BME280;33659;42.672;23.354;2023-03-23T01:00:17;94347.06;;;9.77;75.53
11692;BME280;33659;42.672;23.354;2023-03-23T01:02:45;94350.00;;;9.76;76.28
11692;BME280;33659;42.672;23.354;2023-03-23T01:05:12;94346.97;;;9.74;76.95
11692;BME280;33659;42.672;23.354;2023-03-23T01:07:41;94353.38;;;9.76;77.34
11692;BME280;33659;42.672;23.354;2023-03-23T01:10:10;94344.69;;;9.72;77.50
11692;BME280;33659;42.672;23.354;2023-03-23T01:12:42;94343.56;;;9.61;77.97
11692;BME280;33659;42.672;23.354;2023-03-23T01:15:13;94352.84;;;9.50;78.40
11692;BME280;33659;42.672;23.354;2023-03-23T01:17:40;94346.69;;;9.34;78.95
11692;BME280;33659;42.672;23.354;2023-03-23T01:20:08;94342.75;;;9.07;80.36
11692;BME280;33659;42.672;23.354;2023-03-23T01:22:35;94342.09;;;8.68;82.53
11692;BME280;33659;42.672;23.354;2023-03-23T01:25:04;94336.28;;;8.33;84.28
11692;BME280;33659;42.672;23.354;2023-03-23T01:27:30;94335.91;;;8.05;86.31
11692;BME280;33659;42.672;23.354;2023-03-23T01:29:57;94337.78;;;7.96;87.01
11692;BME280;33659;42.672;23.354;2023-03-23T01:32:24;94324.81;;;7.87;87.45
11692;BME280;33659;42.672;23.354;2023-03-23T01:34:51;94323.28;;;7.77;87.42
11692;BME280;33659;42.672;23.354;2023-03-23T01:37:17;94320.56;;;7.74;87.90
11692;BME280;33659;42.672;23.354;2023-03-23T01:39:45;94326.69;;;7.60;88.38
11692;BME280;33659;42.672;23.354;2023-03-23T01:42:13;94324.56;;;7.63;89.67
11692;BME280;33659;42.672;23.354;2023-03-23T01:47:57;94323.28;;;7.86;89.48
11692;BME280;33659;42.672;23.354;2023-03-23T01:50:26;94321.41;;;7.95;89.20
11692;BME280;33659;42.672;23.354;2023-03-23T01:52:56;94318.00;;;8.03;88.64
11692;BME280;33659;42.672;23.354;2023-03-23T01:55:25;94319.53;;;8.13;89.04
11692;BME280;33659;42.672;23.354;2023-03-23T01:57:55;94317.38;;;8.15;88.80
11692;BME280;33659;42.672;23.354;2023-03-23T02:00:24;94311.19;;;8.28;88.55
11692;BME280;33659;42.672;23.354;2023-03-23T02:02:52;94318.03;;;8.41;87.89
11692;BME280;33659;42.672;23.354;2023-03-23T02:05:24;94316.78;;;8.48;87.83
11692;BME280;33659;42.672;23.354;2023-03-23T02:07:54;94319.63;;;8.63;86.95
11692;BME280;33659;42.672;23.354;2023-03-23T02:10:24;94324.31;;;8.70;86.78
11692;BME280;33659;42.672;23.354;2023-03-23T02:12:51;94324.69;;;8.81;85.93
11692;BME280;33659;42.672;23.354;2023-03-23T02:15:19;94321.00;;;8.82;85.89
11692;BME280;33659;42.672;23.354;2023-03-23T02:17:53;94296.13;;;8.72;85.95
11692;BME280;33659;42.672;23.354;2023-03-23T02:20:35;94323.50;;;8.99;83.82
11692;BME280;33659;42.672;23.354;2023-03-23T02:23:21;94319.78;;;9.09;82.60
11692;BME280;33659;42.672;23.354;2023-03-23T02:25:58;94315.06;;;9.23;81.53
11692;BME280;33659;42.672;23.354;2023-03-23T02:31:44;94314.84;;;9.49;79.68
11692;BME280;33659;42.672;23.354;2023-03-23T02:34:16;94314.41;;;9.59;79.83
11692;BME280;33659;42.672;23.354;2023-03-23T02:36:47;94320.34;;;9.68;79.22
11692;BME280;33659;42.672;23.354;2023-03-23T02:39:19;94328.81;;;9.77;79.25
11692;BME280;33659;42.672;23.354;2023-03-23T02:41:52;94319.16;;;9.78;78.87
11692;BME280;33659;42.672;23.354;2023-03-23T02:44:22;94318.19;;;9.83;78.39
11692;BME280;33659;42.672;23.354;2023-03-23T02:46:51;94330.91;;;9.84;77.65
11692;BME280;33659;42.672;23.354;2023-03-23T02:49:21;94331.97;;;9.83;77.08
11692;BME280;33659;42.672;23.354;2023-03-23T02:51:50;94337.09;;;9.80;76.86
11692;BME280;33659;42.672;23.354;2023-03-23T02:54:18;94314.88;;;9.61;76.76
11692;BME280;33659;42.672;23.354;2023-03-23T02:56:48;94341.50;;;9.67;76.95
11692;BME280;33659;42.672;23.354;2023-03-23T02:59:16;94349.84;;;9.60;77.22
11692;BME280;33659;42.672;23.354;2023-03-23T03:01:51;94341.47;;;9.55;77.33
11692;BME280;33659;42.672;23.354;2023-03-23T03:04:22;94347.44;;;9.55;77.20
11692;BME280;33659;42.672;23.354;2023-03-23T03:07:07;94359.41;;;9.56;76.58
11692;BME280;33659;42.672;23.354;2023-03-23T03:09:44;94366.22;;;9.48;76.20
11692;BME280;33659;42.672;23.354;2023-03-23T03:12:17;94359.78;;;9.46;75.91
11692;BME280;33659;42.672;23.354;2023-03-23T03:14:51;94367.59;;;9.46;75.63
11692;BME280;33659;42.672;23.354;2023-03-23T03:17:23;94373.69;;;9.50;75.12
11692;BME280;33659;42.672;23.354;2023-03-23T03:19:55;94364.22;;;9.45;74.88
11692;BME280;33659;42.672;23.354;2023-03-23T03:22:25;94382.03;;;9.43;74.57
11692;BME280;33659;42.672;23.354;2023-03-23T03:24:56;94373.63;;;9.38;74.56
11692;BME280;33659;42.672;23.354;2023-03-23T03:27:24;94373.63;;;9.38;74.90
11692;BME280;33659;42.672;23.354;2023-03-23T03:29:55;94375.06;;;9.35;75.01
11692;BME280;33659;42.672;23.354;2023-03-23T03:32:27;94364.50;;;9.32;74.67
11692;BME280;33659;42.672;23.354;2023-03-23T03:34:59;94381.47;;;9.38;74.88
11692;BME280;33659;42.672;23.354;2023-03-23T03:37:25;94372.75;;;9.34;74.91
11692;BME280;33659;42.672;23.354;2023-03-23T03:39:52;94365.56;;;9.31;75.45
11692;BME280;33659;42.672;23.354;2023-03-23T03:42:19;94372.56;;;9.39;75.46
11692;BME280;33659;42.672;23.354;2023-03-23T03:44:45;94373.53;;;9.34;75.57
11692;BME280;33659;42.672;23.354;2023-03-23T03:47:12;94373.38;;;9.31;75.68
11692;BME280;33659;42.672;23.354;2023-03-23T03:49:39;94371.69;;;9.35;75.35
11692;BME280;33659;42.672;23.354;2023-03-23T03:52:07;94367.09;;;9.32;75.27
11692;BME280;33659;42.672;23.354;2023-03-23T03:54:33;94374.59;;;9.33;75.50
11692;BME280;33659;42.672;23.354;2023-03-23T03:57:00;94375.06;;;9.35;75.24
11692;BME280;33659;42.672;23.354;2023-03-23T03:59:27;94369.19;;;9.38;74.91
11692;BME280;33659;42.672;23.354;2023-03-23T04:01:56;94368.56;;;9.41;74.98
11692;BME280;33659;42.672;23.354;2023-03-23T04:04:22;94370.19;;;9.46;74.90
11692;BME280;33659;42.672;23.354;2023-03-23T04:06:49;94373.88;;;9.45;74.70
11692;BME280;33659;42.672;23.354;2023-03-23T04:09:17;94360.22;;;9.48;74.34
11692;BME280;33659;42.672;23.354;2023-03-23T04:11:44;94360.53;;;9.46;74.10
11692;BME280;33659;42.672;23.354;2023-03-23T04:14:11;94365.13;;;9.29;73.93
11692;BME280;33659;42.672;23.354;2023-03-23T04:16:38;94355.59;;;9.12;74.85
11692;BME280;33659;42.672;23.354;2023-03-23T04:19:06;94361.81;;;8.99;75.51
11692;BME280;33659;42.672;23.354;2023-03-23T04:21:32;94362.31;;;8.92;76.29
11692;BME280;33659;42.672;23.354;2023-03-23T04:23:59;94365.69;;;8.92;76.29
11692;BME280;33659;42.672;23.354;2023-03-23T04:26:28;94362.72;;;9.03;76.23
11692;BME280;33659;42.672;23.354;2023-03-23T04:28:55;94372.00;;;9.12;75.88
11692;BME280;33659;42.672;23.354;2023-03-23T04:31:22;94370.84;;;9.22;75.03
11692;BME280;33659;42.672;23.354;2023-03-23T04:33:50;94371.44;;;9.28;75.08
11692;BME280;33659;42.672;23.354;2023-03-23T04:36:18;94375.66;;;9.32;74.36
11692;BME280;33659;42.672;23.354;2023-03-23T04:38:47;94373.63;;;9.38;74.48
11692;BME280;33659;42.672;23.354;2023-03-23T04:41:15;94373.88;;;9.45;74.28
11692;BME280;33659;42.672;23.354;2023-03-23T04:43:43;94369.56;;;9.49;73.74
11692;BME280;33659;42.672;23.354;2023-03-23T04:46:10;94374.34;;;9.47;73.27
11692;BME280;33659;42.672;23.354;2023-03-23T04:48:37;94381.28;;;9.43;73.12
11692;BME280;33659;42.672;23.354;2023-03-23T04:51:05;94376.91;;;9.35;73.77
11692;BME280;33659;42.672;23.354;2023-03-23T04:53:32;94387.50;;;9.30;73.99
11692;BME280;33659;42.672;23.354;2023-03-23T04:55:59;94385.22;;;9.28;73.64
11692;BME280;33659;42.672;23.354;2023-03-23T04:58:26;94383.38;;;9.29;73.39
11692;BME280;33659;42.672;23.354;2023-03-23T05:00:55;94387.50;;;9.30;73.73
11692;BME280;33659;42.672;23.354;2023-03-23T05:03:21;94387.94;;;9.32;73.39
11692;BME280;33659;42.672;23.354;2023-03-23T05:05:48;94390.56;;;9.32;73.24
11692;BME280;33659;42.672;23.354;2023-03-23T05:08:17;94388.84;;;9.36;73.41
11692;BME280;33659;42.672;23.354;2023-03-23T05:10:50;94398.81;;;9.34;73.22
11692;BME280;33659;42.672;23.354;2023-03-23T05:13:17;94395.75;;;9.32;73.24
11692;BME280;33659;42.672;23.354;2023-03-23T05:15:44;94395.75;;;9.32;73.34
11692;BME280;33659;42.672;23.354;2023-03-23T05:18:13;94388.13;;;9.27;73.73
11692;BME280;33659;42.672;23.354;2023-03-23T05:20:39;94394.88;;;9.28;73.76
11692;BME280;33659;42.672;23.354;2023-03-23T05:23:07;94395.56;;;9.37;73.49
11692;BME280;33659;42.672;23.354;2023-03-23T05:25:33;94403.66;;;9.44;72.89
11692;BME280;33659;42.672;23.354;2023-03-23T05:28:02;94411.47;;;9.44;73.44
11692;BME280;33659;42.672;23.354;2023-03-23T05:30:28;94411.66;;;9.39;73.74
11692;BME280;33659;42.672;23.354;2023-03-23T05:32:56;94404.81;;;9.34;73.86
11692;BME280;33659;42.672;23.354;2023-03-23T05:35:24;94410.13;;;9.38;73.78
11692;BME280;33659;42.672;23.354;2023-03-23T05:37:50;94425.16;;;9.41;73.84
11692;BME280;33659;42.672;23.354;2023-03-23T05:40:19;94412.88;;;9.41;73.51
11692;BME280;33659;42.672;23.354;2023-03-23T05:42:47;94421.06;;;9.52;73.67
11692;BME280;33659;42.672;23.354;2023-03-23T05:45:14;94418.91;;;9.54;73.60
11692;BME280;33659;42.672;23.354;2023-03-23T05:47:41;94419.69;;;9.55;73.33
11692;BME280;33659;42.672;23.354;2023-03-23T05:50:08;94425.91;;;9.62;73.45
11692;BME280;33659;42.672;23.354;2023-03-23T05:52:37;94430.91;;;9.67;73.28
11692;BME280;33659;42.672;23.354;2023-03-23T05:55:06;94432.78;;;9.67;73.13
11692;BME280;33659;42.672;23.354;2023-03-23T05:57:33;94434.09;;;9.73;72.93
11692;BME280;33659;42.672;23.354;2023-03-23T06:00:00;94433.13;;;9.77;72.62
11692;BME280;33659;42.672;23.354;2023-03-23T06:02:31;94440.31;;;9.81;72.44
11692;BME280;33659;42.672;23.354;2023-03-23T06:04:59;94439.34;;;9.85;71.97
11692;BME280;33659;42.672;23.354;2023-03-23T06:07:26;94444.69;;;9.89;71.85
11692;BME280;33659;42.672;23.354;2023-03-23T06:09:54;94444.94;;;9.96;72.08
11692;BME280;33659;42.672;23.354;2023-03-23T06:12:21;94440.63;;;10.00;71.99
11692;BME280;33659;42.672;23.354;2023-03-23T06:14:48;94443.56;;;9.98;72.18
11692;BME280;33659;42.672;23.354;2023-03-23T06:17:15;94434.13;;;10.06;71.90
11692;BME280;33659;42.672;23.354;2023-03-23T06:19:42;94437.28;;;10.12;72.01
11692;BME280;33659;42.672;23.354;2023-03-23T06:22:09;94442.94;;;10.14;72.03
11692;BME280;33659;42.672;23.354;2023-03-23T06:24:36;94442.63;;;10.15;72.26
11692;BME280;33659;42.672;23.354;2023-03-23T06:27:04;94434.59;;;10.20;72.13
11692;BME280;33659;42.672;23.354;2023-03-23T06:29:31;94441.16;;;10.26;71.77
11692;BME280;33659;42.672;23.354;2023-03-23T06:31:59;94438.78;;;10.34;71.83
11692;BME280;33659;42.672;23.354;2023-03-23T06:34:27;94434.44;;;10.38;71.58
11692;BME280;33659;42.672;23.354;2023-03-23T06:36:55;94444.03;;;10.46;71.04
11692;BME280;33659;42.672;23.354;2023-03-23T06:39:21;94419.97;;;10.40;71.22
11692;BME280;33659;42.672;23.354;2023-03-23T06:41:48;94440.25;;;10.68;70.61
11692;BME280;33659;42.672;23.354;2023-03-23T06:44:16;94434.28;;;10.79;70.17
11692;BME280;33659;42.672;23.354;2023-03-23T06:46:43;94438.31;;;10.89;69.57
11692;BME280;33659;42.672;23.354;2023-03-23T06:49:10;94448.97;;;10.96;69.65
11692;BME280;33659;42.672;23.354;2023-03-23T06:51:36;94450.38;;;11.06;69.59
11692;BME280;33659;42.672;23.354;2023-03-23T06:54:03;94462.25;;;11.16;69.44
11692;BME280;33659;42.672;23.354;2023-03-23T06:56:30;94447.34;;;11.04;69.27
11692;BME280;33659;42.672;23.354;2023-03-23T06:58:57;94456.47;;;11.22;68.48
11692;BME280;33659;42.672;23.354;2023-03-23T07:01:25;94458.00;;;11.23;68.26
11692;BME280;33659;42.672;23.354;2023-03-23T07:03:53;94464.09;;;11.27;68.18
11692;BME280;33659;42.672;23.354;2023-03-23T07:06:20;94458.53;;;11.29;68.26
11692;BME280;33659;42.672;23.354;2023-03-23T07:08:47;94464.09;;;11.27;68.35
11692;BME280;33659;42.672;23.354;2023-03-23T07:11:14;94456.13;;;11.36;68.16
11692;BME280;33659;42.672;23.354;2023-03-23T07:13:41;94459.09;;;11.34;67.93
11692;BME280;33659;42.672;23.354;2023-03-23T07:16:08;94462.69;;;11.30;68.46
11692;BME280;33659;42.672;23.354;2023-03-23T07:18:37;94460.28;;;11.37;68.54
11692;BME280;33659;42.672;23.354;2023-03-23T07:21:04;94464.72;;;11.49;68.20
11692;BME280;33659;42.672;23.354;2023-03-23T07:23:31;94455.34;;;11.48;68.64
11692;BME280;33659;42.672;23.354;2023-03-23T07:25:58;94457.56;;;11.33;69.48
11692;BME280;33659;42.672;23.354;2023-03-23T07:28:25;94459.31;;;11.29;69.65
11692;BME280;33659;42.672;23.354;2023-03-23T07:30:52;94459.72;;;11.31;69.27
11692;BME280;33659;42.672;23.354;2023-03-23T07:33:19;94454.94;;;11.33;69.49
11692;BME280;33659;42.672;23.354;2023-03-23T07:35:48;94457.09;;;11.44;69.44
11692;BME280;33659;42.672;23.354;2023-03-23T07:38:15;94464.94;;;11.56;68.68
11692;BME280;33659;42.672;23.354;2023-03-23T07:40:42;94453.56;;;11.64;68.05
11692;BME280;33659;42.672;23.354;2023-03-23T07:43:09;94467.38;;;11.77;67.74
11692;BME280;33659;42.672;23.354;2023-03-23T07:45:36;94471.22;;;11.67;68.01
11692;BME280;33659;42.672;23.354;2023-03-23T07:48:03;94474.69;;;11.71;67.87
11692;BME280;33659;42.672;23.354;2023-03-23T07:50:30;94466.19;;;11.74;67.75
11692;BME280;33659;42.672;23.354;2023-03-23T07:52:59;94469.34;;;11.80;67.85
11692;BME280;33659;42.672;23.354;2023-03-23T07:55:26;94476.75;;;11.90;67.40
11692;BME280;33659;42.672;23.354;2023-03-23T07:57:54;94479.47;;;11.93;66.48
11692;BME280;33659;42.672;23.354;2023-03-23T08:00:22;94481.09;;;11.98;66.62
11692;BME280;33659;42.672;23.354;2023-03-23T08:02:50;94468.84;;;12.02;66.32
11692;BME280;33659;42.672;23.354;2023-03-23T08:05:18;94480.53;;;12.05;66.47
11692;BME280;33659;42.672;23.354;2023-03-23T08:07:46;94484.16;;;12.16;66.76
11692;BME280;33659;42.672;23.354;2023-03-23T08:10:15;94484.34;;;12.23;66.85
11692;BME280;33659;42.672;23.354;2023-03-23T08:12:43;94485.03;;;12.20;66.91
11692;BME280;33659;42.672;23.354;2023-03-23T08:15:12;94466.34;;;12.06;67.22
11692;BME280;33659;42.672;23.354;2023-03-23T08:17:41;94490.97;;;12.33;66.45
11692;BME280;33659;42.672;23.354;2023-03-23T08:20:09;94488.31;;;12.45;66.03
11692;BME280;33659;42.672;23.354;2023-03-23T08:22:38;94475.56;;;12.43;65.57
11692;BME280;33659;42.672;23.354;2023-03-23T08:25:08;94487.03;;;12.55;65.20
11692;BME280;33659;42.672;23.354;2023-03-23T08:27:37;94487.63;;;12.48;64.57
11692;BME280;33659;42.672;23.354;2023-03-23T08:30:09;94492.09;;;12.47;64.74
11692;BME280;33659;42.672;23.354;2023-03-23T08:32:36;94477.91;;;12.48;64.14
11692;BME280;33659;42.672;23.354;2023-03-23T08:35:04;94492.97;;;12.52;62.72
11692;BME280;33659;42.672;23.354;2023-03-23T08:37:30;94480.38;;;12.57;62.18
11692;BME280;33659;42.672;23.354;2023-03-23T08:39:57;94479.34;;;12.62;61.94
11692;BME280;33659;42.672;23.354;2023-03-23T08:42:24;94476.59;;;12.70;62.00
11692;BME280;33659;42.672;23.354;2023-03-23T08:44:52;94481.66;;;12.79;62.00
11692;BME280;33659;42.672;23.354;2023-03-23T08:47:19;94477.94;;;12.80;61.41
11692;BME280;33659;42.672;23.354;2023-03-23T08:49:46;94475.06;;;12.85;61.63
11692;BME280;33659;42.672;23.354;2023-03-23T08:52:18;94478.81;;;12.84;57.77
11692;BME280;33659;42.672;23.354;2023-03-23T08:54:44;94473.22;;;12.70;56.91
11692;BME280;33659;42.672;23.354;2023-03-23T08:57:13;94474.41;;;12.57;54.12
11692;BME280;33659;42.672;23.354;2023-03-23T08:59:41;94476.38;;;12.47;54.75
11692;BME280;33659;42.672;23.354;2023-03-23T09:02:10;94477.31;;;12.55;55.07
11692;BME280;33659;42.672;23.354;2023-03-23T09:04:38;94461.94;;;12.54;55.47
11692;BME280;33659;42.672;23.354;2023-03-23T09:07:05;94480.91;;;12.79;54.04
11692;BME280;33659;42.672;23.354;2023-03-23T09:09:32;94479.56;;;12.85;53.55
11692;BME280;33659;42.672;23.354;2023-03-23T09:11:59;94473.53;;;13.00;53.72
11692;BME280;33659;42.672;23.354;2023-03-23T09:14:26;94477.69;;;13.17;53.18
11692;BME280;33659;42.672;23.354;2023-03-23T09:16:53;94479.56;;;13.16;52.95
11692;BME280;33659;42.672;23.354;2023-03-23T09:19:21;94471.94;;;13.11;53.53
11692;BME280;33659;42.672;23.354;2023-03-23T09:21:47;94474.97;;;13.13;53.39
11692;BME280;33659;42.672;23.354;2023-03-23T09:24:15;94474.91;;;13.10;53.39
11692;BME280;33659;42.672;23.354;2023-03-23T09:26:41;94473.22;;;13.01;53.89
11692;BME280;33659;42.672;23.354;2023-03-23T09:29:08;94472.53;;;13.05;54.12
11692;BME280;33659;42.672;23.354;2023-03-23T09:31:36;94473.72;;;13.23;54.80
11692;BME280;33659;42.672;23.354;2023-03-23T09:34:05;94465.75;;;13.35;54.61
11692;BME280;33659;42.672;23.354;2023-03-23T09:36:36;94462.94;;;13.44;54.66
11692;BME280;33659;42.672;23.354;2023-03-23T09:39:04;94465.44;;;13.56;54.78
11692;BME280;33659;42.672;23.354;2023-03-23T09:41:55;94464.16;;;13.66;53.57
11692;BME280;33659;42.672;23.354;2023-03-23T09:44:32;94468.66;;;13.85;53.32
11692;BME280;33659;42.672;23.354;2023-03-23T09:47:06;94464.03;;;13.97;52.81
11692;BME280;33659;42.672;23.354;2023-03-23T09:49:37;94457.97;;;14.13;51.76
11692;BME280;33659;42.672;23.354;2023-03-23T09:52:11;94446.69;;;14.12;51.69
11692;BME280;33659;42.672;23.354;2023-03-23T09:54:40;94454.44;;;14.24;50.21
11692;BME280;33659;42.672;23.354;2023-03-23T09:57:12;94438.34;;;13.87;50.89
11692;BME280;33659;42.672;23.354;2023-03-23T09:59:46;94454.22;;;13.75;50.89
11692;BME280;33659;42.672;23.354;2023-03-23T10:02:17;94444.72;;;13.51;50.86
11692;BME280;33659;42.672;23.354;2023-03-23T10:04:46;94443.16;;;13.46;51.57
11692;BME280;33659;42.672;23.354;2023-03-23T10:07:16;94446.97;;;13.68;52.21
11692;BME280;33659;42.672;23.354;2023-03-23T10:09:45;94446.09;;;13.80;51.48
11692;BME280;33659;42.672;23.354;2023-03-23T10:12:24;94445.50;;;13.90;49.86
11692;BME280;33659;42.672;23.354;2023-03-23T10:15:02;94442.75;;;14.02;50.58
11692;BME280;33659;42.672;23.354;2023-03-23T10:17:33;94448.81;;;14.26;51.04
11692;BME280;33659;42.672;23.354;2023-03-23T10:20:15;94426.41;;;14.51;50.59
11692;BME280;33659;42.672;23.354;2023-03-23T10:22:51;94436.22;;;14.77;49.66
11692;BME280;33659;42.672;23.354;2023-03-23T10:25:22;94432.66;;;14.89;49.39
11692;BME280;33659;42.672;23.354;2023-03-23T10:27:54;94434.44;;;14.85;48.97
11692;BME280;33659;42.672;23.354;2023-03-23T10:30:27;94432.69;;;14.93;48.82
11692;BME280;33659;42.672;23.354;2023-03-23T10:32:58;94412.97;;;15.06;48.57
11692;BME280;33659;42.672;23.354;2023-03-23T10:35:30;94437.81;;;15.35;47.92
11692;BME280;33659;42.672;23.354;2023-03-23T10:38:01;94431.94;;;15.45;47.40
11692;BME280;33659;42.672;23.354;2023-03-23T10:40:31;94428.25;;;15.50;46.36
11692;BME280;33659;42.672;23.354;2023-03-23T10:42:58;94414.38;;;15.53;46.41
11692;BME280;33659;42.672;23.354;2023-03-23T10:45:26;94429.19;;;15.64;46.47
11692;BME280;33659;42.672;23.354;2023-03-23T10:47:58;94419.19;;;15.74;46.30
11692;BME280;33659;42.672;23.354;2023-03-23T10:50:29;94419.13;;;15.70;46.59
11692;BME280;33659;42.672;23.354;2023-03-23T10:52:57;94426.06;;;15.55;46.53
11692;BME280;33659;42.672;23.354;2023-03-23T10:55:36;94422.50;;;15.40;47.01
11692;BME280;33659;42.672;23.354;2023-03-23T10:58:05;94419.50;;;15.42;47.16
11692;BME280;33659;42.672;23.354;2023-03-23T11:00:40;94420.06;;;15.58;47.11
11692;BME280;33659;42.672;23.354;2023-03-23T11:03:23;94418.88;;;15.82;45.88
11692;BME280;33659;42.672;23.354;2023-03-23T11:05:54;94407.75;;;15.96;45.69
11692;BME280;33659;42.672;23.354;2023-03-23T11:08:24;94420.00;;;16.15;44.48
11692;BME280;33659;42.672;23.354;2023-03-23T11:10:54;94414.59;;;16.01;44.82
11692;BME280;33659;42.672;23.354;2023-03-23T11:13:23;94410.06;;;16.01;45.33
11692;BME280;33659;42.672;23.354;2023-03-23T11:15:54;94402.41;;;15.89;44.78
11692;BME280;33659;42.672;23.354;2023-03-23T11:18:22;94393.38;;;15.90;44.82
11692;BME280;33659;42.672;23.354;2023-03-23T11:20:53;94402.69;;;16.14;44.78
11692;BME280;33659;42.672;23.354;2023-03-23T11:23:23;94399.66;;;16.12;44.80
11692;BME280;33659;42.672;23.354;2023-03-23T11:25:58;94399.06;;;16.29;44.40
11692;BME280;33659;42.672;23.354;2023-03-23T11:28:31;94394.78;;;16.55;44.57
11692;BME280;33659;42.672;23.354;2023-03-23T11:31:00;94390.13;;;16.82;44.13
11692;BME280;33659;42.672;23.354;2023-03-23T11:33:29;94389.16;;;17.04;42.87
11692;BME280;33659;42.672;23.354;2023-03-23T11:35:57;94385.47;;;17.16;41.69
11692;BME280;33659;42.672;23.354;2023-03-23T11:38:24;94386.28;;;17.30;41.52
11692;BME280;33659;42.672;23.354;2023-03-23T11:40:53;94381.16;;;17.63;41.65
11692;BME280;33659;42.672;23.354;2023-03-23T11:43:22;94375.22;;;17.83;41.36
11692;BME280;33659;42.672;23.354;2023-03-23T11:45:56;94380.59;;;18.12;40.71
11692;BME280;33659;42.672;23.354;2023-03-23T11:48:29;94377.63;;;18.46;40.08
11692;BME280;33659;42.672;23.354;2023-03-23T11:51:01;94371.25;;;18.68;39.38
11692;BME280;33659;42.672;23.354;2023-03-23T11:53:42;94365.94;;;18.93;39.02
11692;BME280;33659;42.672;23.354;2023-03-23T11:56:17;94367.44;;;19.15;38.15
11692;BME280;33659;42.672;23.354;2023-03-23T11:58:47;94370.81;;;19.16;38.28
11692;BME280;33659;42.672;23.354;2023-03-23T12:01:21;94358.66;;;19.40;38.03
11692;BME280;33659;42.672;23.354;2023-03-23T12:03:58;94353.31;;;19.58;37.67
11692;BME280;33659;42.672;23.354;2023-03-23T12:06:36;94352.19;;;19.48;38.10
11692;BME280;33659;42.672;23.354;2023-03-23T12:09:20;94356.41;;;19.31;38.28
11692;BME280;33659;42.672;23.354;2023-03-23T12:11:58;94351.09;;;19.38;38.13
11692;BME280;33659;42.672;23.354;2023-03-23T12:14:39;94354.09;;;19.44;37.57
11692;BME280;33659;42.672;23.354;2023-03-23T12:17:18;94348.47;;;19.31;37.60
11692;BME280;33659;42.672;23.354;2023-03-23T12:19:53;94348.88;;;19.19;37.88
11692;BME280;33659;42.672;23.354;2023-03-23T12:22:31;94343.63;;;18.90;37.77
11692;BME280;33659;42.672;23.354;2023-03-23T12:25:16;94327.00;;;18.58;38.49
11692;BME280;33659;42.672;23.354;2023-03-23T12:27:52;94351.56;;;18.65;38.66
11692;BME280;33659;42.672;23.354;2023-03-23T12:30:31;94347.06;;;18.73;38.37
11692;BME280;33659;42.672;23.354;2023-03-23T12:33:11;94342.91;;;18.61;38.22
11692;BME280;33659;42.672;23.354;2023-03-23T12:35:49;94344.44;;;18.70;38.54
11692;BME280;33659;42.672;23.354;2023-03-23T12:38:48;94342.84;;;19.04;37.78
11692;BME280;33659;42.672;23.354;2023-03-23T12:41:18;94331.50;;;19.14;37.78
11692;BME280;33659;42.672;23.354;2023-03-23T12:43:51;94336.69;;;19.50;37.57
11692;BME280;33659;42.672;23.354;2023-03-23T12:46:45;94333.88;;;19.89;36.66
11692;BME280;33659;42.672;23.354;2023-03-23T12:49:20;94336.38;;;20.18;36.38
11692;BME280;33659;42.672;23.354;2023-03-23T12:51:54;94329.38;;;20.45;35.94
11692;BME280;33659;42.672;23.354;2023-03-23T12:54:29;94329.16;;;20.74;35.47
11692;BME280;33659;42.672;23.354;2023-03-23T12:57:02;94322.91;;;20.95;34.74
11692;BME280;33659;42.672;23.354;2023-03-23T12:59:40;94320.06;;;21.13;34.64
11692;BME280;33659;42.672;23.354;2023-03-23T13:02:17;94296.38;;;20.91;34.24
11692;BME280;33659;42.672;23.354;2023-03-23T13:04:47;94318.25;;;21.06;34.94
11692;BME280;33659;42.672;23.354;2023-03-23T13:07:22;94318.81;;;20.87;34.86
11692;BME280;33659;42.672;23.354;2023-03-23T13:09:57;94322.56;;;20.41;35.59
11692;BME280;33659;42.672;23.354;2023-03-23T13:12:26;94317.41;;;20.19;35.83
11692;BME280;33659;42.672;23.354;2023-03-23T13:15:01;94313.06;;;19.91;36.11